sensor_id;sensor_type;location;lat;lon;timestamp;P1;durP1;ratioP1;P2;durP2;ratioP2
77164;SDS011;66140;50.280;18.660;2022-12-24T05:00:18;13.80;;;9.02;;
77164;SDS011;66140;50.280;18.660;2022-12-24T05:02:43;15.77;;;10.40;;
77164;SDS011;66140;50.280;18.660;2022-12-24T05:05:09;12.37;;;8.93;;
77164;SDS011;66140;50.280;18.660;2022-12-24T05:07:34;15.90;;;9.48;;
77164;SDS011;66140;50.280;18.660;2022-12-24T05:09:59;15.40;;;9.07;;
77164;SDS011;66140;50.280;18.660;2022-12-24T05:12:25;16.90;;;9.67;;
77164;SDS011;66140;50.280;18.660;2022-12-24T05:14:50;16.95;;;9.63;;
77164;SDS011;66140;50.280;18.660;2022-12-24T05:17:15;13.70;;;8.47;;
77164;SDS011;66140;50.280;18.660;2022-12-24T05:19:41;12.27;;;8.43;;
77164;SDS011;66140;50.280;18.660;2022-12-24T05:22:06;11.63;;;8.13;;
77164;SDS011;66140;50.280;18.660;2022-12-24T05:24:50;15.18;;;9.70;;
77164;SDS011;66140;50.280;18.660;2022-12-24T05:27:34;12.18;;;8.48;;
77164;SDS011;66140;50.280;18.660;2022-12-24T05:30:00;13.10;;;7.53;;
77164;SDS011;66140;50.280;18.660;2022-12-24T05:32:25;13.32;;;8.88;;
77164;SDS011;66140;50.280;18.660;2022-12-24T05:34:51;16.10;;;9.27;;
77164;SDS011;66140;50.280;18.660;2022-12-24T05:37:16;13.33;;;9.20;;
77164;SDS011;66140;50.280;18.660;2022-12-24T05:39:42;15.83;;;9.47;;
77164;SDS011;66140;50.280;18.660;2022-12-24T05:42:07;13.03;;;7.83;;
77164;SDS011;66140;50.280;18.660;2022-12-24T05:44:32;17.23;;;10.55;;
77164;SDS011;66140;50.280;18.660;2022-12-24T05:46:58;18.00;;;9.77;;
77164;SDS011;66140;50.280;18.660;2022-12-24T05:49:23;14.82;;;10.13;;
77164;SDS011;66140;50.280;18.660;2022-12-24T05:51:49;14.37;;;9.77;;
77164;SDS011;66140;50.280;18.660;2022-12-24T05:54:14;16.97;;;9.47;;
77164;SDS011;66140;50.280;18.660;2022-12-24T05:56:39;16.13;;;9.60;;
77164;SDS011;66140;50.280;18.660;2022-12-24T05:59:05;16.00;;;9.05;;
77164;SDS011;66140;50.280;18.660;2022-12-24T06:01:30;14.93;;;9.63;;
77164;SDS011;66140;50.280;18.660;2022-12-24T06:03:56;15.17;;;9.43;;
77164;SDS011;66140;50.280;18.660;2022-12-24T06:06:24;13.77;;;9.48;;
77164;SDS011;66140;50.280;18.660;2022-12-24T06:08:56;14.48;;;10.10;;
77164;SDS011;66140;50.280;18.660;2022-12-24T06:11:26;22.30;;;12.73;;
77164;SDS011;66140;50.280;18.660;2022-12-24T06:13:54;18.20;;;12.77;;
77164;SDS011;66140;50.280;18.660;2022-12-24T06:16:21;21.30;;;13.20;;
77164;SDS011;66140;50.280;18.660;2022-12-24T06:18:48;19.27;;;13.43;;
77164;SDS011;66140;50.280;18.660;2022-12-24T06:21:14;17.17;;;11.05;;
77164;SDS011;66140;50.280;18.660;2022-12-24T06:23:40;20.98;;;13.05;;
77164;SDS011;66140;50.280;18.660;2022-12-24T06:26:14;21.25;;;12.88;;
77164;SDS011;66140;50.280;18.660;2022-12-24T06:31:09;15.48;;;10.27;;
77164;SDS011;66140;50.280;18.660;2022-12-24T06:33:37;15.98;;;10.07;;
77164;SDS011;66140;50.280;18.660;2022-12-24T06:36:05;13.82;;;8.98;;
77164;SDS011;66140;50.280;18.660;2022-12-24T06:38:31;16.42;;;10.10;;
77164;SDS011;66140;50.280;18.660;2022-12-24T06:40:57;14.50;;;9.10;;
77164;SDS011;66140;50.280;18.660;2022-12-24T06:43:23;15.48;;;10.38;;
77164;SDS011;66140;50.280;18.660;2022-12-24T06:45:49;13.32;;;8.88;;
77164;SDS011;66140;50.280;18.660;2022-12-24T06:48:15;11.32;;;8.50;;
77164;SDS011;66140;50.280;18.660;2022-12-24T06:50:40;12.77;;;7.68;;
77164;SDS011;66140;50.280;18.660;2022-12-24T06:53:06;10.27;;;7.40;;
77164;SDS011;66140;50.280;18.660;2022-12-24T06:55:32;13.82;;;8.10;;
77164;SDS011;66140;50.280;18.660;2022-12-24T06:58:00;11.13;;;7.85;;
77164;SDS011;66140;50.280;18.660;2022-12-24T07:00:25;10.52;;;7.85;;
77164;SDS011;66140;50.280;18.660;2022-12-24T07:02:51;12.70;;;8.45;;
77164;SDS011;66140;50.280;18.660;2022-12-24T07:05:16;11.33;;;7.90;;
77164;SDS011;66140;50.280;18.660;2022-12-24T07:07:42;9.55;;;7.38;;
77164;SDS011;66140;50.280;18.660;2022-12-24T07:10:13;11.50;;;8.35;;
77164;SDS011;66140;50.280;18.660;2022-12-24T07:12:40;12.48;;;8.90;;
77164;SDS011;66140;50.280;18.660;2022-12-24T07:15:05;14.63;;;8.73;;
77164;SDS011;66140;50.280;18.660;2022-12-24T07:17:31;14.20;;;9.10;;
77164;SDS011;66140;50.280;18.660;2022-12-24T07:19:57;15.10;;;9.30;;
77164;SDS011;66140;50.280;18.660;2022-12-24T07:22:22;14.40;;;9.73;;
77164;SDS011;66140;50.280;18.660;2022-12-24T07:24:47;15.03;;;9.67;;
77164;SDS011;66140;50.280;18.660;2022-12-24T07:27:13;13.00;;;9.77;;
77164;SDS011;66140;50.280;18.660;2022-12-24T07:29:38;15.32;;;9.85;;
77164;SDS011;66140;50.280;18.660;2022-12-24T07:32:05;17.17;;;9.73;;
77164;SDS011;66140;50.280;18.660;2022-12-24T07:34:30;16.08;;;9.88;;
77164;SDS011;66140;50.280;18.660;2022-12-24T07:36:55;15.43;;;9.95;;
77164;SDS011;66140;50.280;18.660;2022-12-24T07:39:21;13.33;;;8.83;;
77164;SDS011;66140;50.280;18.660;2022-12-24T07:41:46;16.88;;;9.32;;
77164;SDS011;66140;50.280;18.660;2022-12-24T07:44:12;10.68;;;7.47;;
77164;SDS011;66140;50.280;18.660;2022-12-24T07:46:38;79.88;;;12.50;;
77164;SDS011;66140;50.280;18.660;2022-12-24T07:49:04;11.85;;;7.30;;
77164;SDS011;66140;50.280;18.660;2022-12-24T07:51:32;13.57;;;7.75;;
77164;SDS011;66140;50.280;18.660;2022-12-24T07:56:38;10.70;;;7.07;;
77164;SDS011;66140;50.280;18.660;2022-12-24T07:59:04;12.30;;;7.68;;
77164;SDS011;66140;50.280;18.660;2022-12-24T08:01:29;12.70;;;8.10;;
77164;SDS011;66140;50.280;18.660;2022-12-24T08:03:54;13.27;;;7.90;;
77164;SDS011;66140;50.280;18.660;2022-12-24T08:06:20;11.00;;;7.93;;
77164;SDS011;66140;50.280;18.660;2022-12-24T08:08:46;11.73;;;7.65;;
77164;SDS011;66140;50.280;18.660;2022-12-24T08:11:11;13.13;;;8.10;;
77164;SDS011;66140;50.280;18.660;2022-12-24T08:13:37;10.50;;;7.00;;
77164;SDS011;66140;50.280;18.660;2022-12-24T08:16:03;10.48;;;7.72;;
77164;SDS011;66140;50.280;18.660;2022-12-24T08:18:29;14.15;;;8.60;;
77164;SDS011;66140;50.280;18.660;2022-12-24T08:20:55;10.52;;;7.13;;
77164;SDS011;66140;50.280;18.660;2022-12-24T08:23:20;9.90;;;5.78;;
77164;SDS011;66140;50.280;18.660;2022-12-24T08:25:46;10.77;;;6.60;;
77164;SDS011;66140;50.280;18.660;2022-12-24T08:28:12;9.90;;;6.50;;
77164;SDS011;66140;50.280;18.660;2022-12-24T08:33:29;7.60;;;5.50;;
77164;SDS011;66140;50.280;18.660;2022-12-24T08:35:59;11.27;;;5.32;;
77164;SDS011;66140;50.280;18.660;2022-12-24T08:38:25;8.68;;;5.78;;
77164;SDS011;66140;50.280;18.660;2022-12-24T08:40:52;17.55;;;9.70;;
77164;SDS011;66140;50.280;18.660;2022-12-24T08:43:18;8.77;;;5.82;;
77164;SDS011;66140;50.280;18.660;2022-12-24T08:45:44;8.02;;;5.13;;
77164;SDS011;66140;50.280;18.660;2022-12-24T08:48:12;11.07;;;5.20;;
77164;SDS011;66140;50.280;18.660;2022-12-24T08:50:38;8.48;;;4.47;;
77164;SDS011;66140;50.280;18.660;2022-12-24T08:53:04;10.00;;;5.28;;
77164;SDS011;66140;50.280;18.660;2022-12-24T08:55:29;5.90;;;3.40;;
77164;SDS011;66140;50.280;18.660;2022-12-24T08:57:54;6.45;;;3.17;;
77164;SDS011;66140;50.280;18.660;2022-12-24T09:00:20;5.15;;;2.88;;
77164;SDS011;66140;50.280;18.660;2022-12-24T09:02:45;4.85;;;2.53;;
77164;SDS011;66140;50.280;18.660;2022-12-24T09:05:11;5.50;;;2.47;;
77164;SDS011;66140;50.280;18.660;2022-12-24T09:07:36;4.55;;;2.45;;
77164;SDS011;66140;50.280;18.660;2022-12-24T09:10:02;3.75;;;2.28;;
77164;SDS011;66140;50.280;18.660;2022-12-24T09:12:27;4.22;;;2.15;;
77164;SDS011;66140;50.280;18.660;2022-12-24T09:14:53;3.45;;;2.17;;
77164;SDS011;66140;50.280;18.660;2022-12-24T09:17:18;5.30;;;2.30;;
77164;SDS011;66140;50.280;18.660;2022-12-24T09:19:44;5.07;;;2.22;;
77164;SDS011;66140;50.280;18.660;2022-12-24T09:22:10;4.65;;;1.83;;
77164;SDS011;66140;50.280;18.660;2022-12-24T09:24:36;5.55;;;2.20;;
77164;SDS011;66140;50.280;18.660;2022-12-24T09:27:01;6.65;;;2.88;;
77164;SDS011;66140;50.280;18.660;2022-12-24T09:29:28;8.73;;;2.80;;
77164;SDS011;66140;50.280;18.660;2022-12-24T09:31:53;5.43;;;2.10;;
77164;SDS011;66140;50.280;18.660;2022-12-24T09:34:20;5.57;;;2.50;;
77164;SDS011;66140;50.280;18.660;2022-12-24T09:36:45;9.10;;;2.83;;
77164;SDS011;66140;50.280;18.660;2022-12-24T09:39:11;6.00;;;3.30;;
77164;SDS011;66140;50.280;18.660;2022-12-24T09:41:40;4.55;;;2.75;;
77164;SDS011;66140;50.280;18.660;2022-12-24T09:46:57;5.93;;;2.88;;
77164;SDS011;66140;50.280;18.660;2022-12-24T09:49:33;9.05;;;3.03;;
77164;SDS011;66140;50.280;18.660;2022-12-24T09:52:04;9.02;;;3.55;;
77164;SDS011;66140;50.280;18.660;2022-12-24T09:54:35;7.47;;;3.13;;
77164;SDS011;66140;50.280;18.660;2022-12-24T09:57:10;6.90;;;3.47;;
77164;SDS011;66140;50.280;18.660;2022-12-24T09:59:42;7.30;;;3.65;;
77164;SDS011;66140;50.280;18.660;2022-12-24T10:02:10;8.38;;;3.95;;
77164;SDS011;66140;50.280;18.660;2022-12-24T10:04:38;5.90;;;3.72;;
77164;SDS011;66140;50.280;18.660;2022-12-24T10:15:24;8.25;;;4.85;;
77164;SDS011;66140;50.280;18.660;2022-12-24T10:18:11;8.82;;;4.30;;
77164;SDS011;66140;50.280;18.660;2022-12-24T10:21:45;8.88;;;5.00;;
77164;SDS011;66140;50.280;18.660;2022-12-24T10:23:52;9.05;;;3.90;;
77164;SDS011;66140;50.280;18.660;2022-12-24T10:26:27;6.82;;;4.00;;
77164;SDS011;66140;50.280;18.660;2022-12-24T10:29:00;10.25;;;5.30;;
77164;SDS011;66140;50.280;18.660;2022-12-24T10:31:32;9.57;;;3.78;;
77164;SDS011;66140;50.280;18.660;2022-12-24T10:34:14;6.85;;;4.72;;
77164;SDS011;66140;50.280;18.660;2022-12-24T10:36:44;10.75;;;4.85;;
77164;SDS011;66140;50.280;18.660;2022-12-24T10:39:13;8.02;;;5.00;;
77164;SDS011;66140;50.280;18.660;2022-12-24T10:41:43;10.00;;;4.97;;
77164;SDS011;66140;50.280;18.660;2022-12-24T10:44:17;10.35;;;5.35;;
77164;SDS011;66140;50.280;18.660;2022-12-24T10:46:45;8.75;;;5.03;;
77164;SDS011;66140;50.280;18.660;2022-12-24T10:49:15;12.43;;;6.72;;
77164;SDS011;66140;50.280;18.660;2022-12-24T10:52:05;11.93;;;5.97;;
77164;SDS011;66140;50.280;18.660;2022-12-24T10:54:34;12.18;;;5.72;;
77164;SDS011;66140;50.280;18.660;2022-12-24T10:57:03;9.10;;;5.45;;
77164;SDS011;66140;50.280;18.660;2022-12-24T11:02:33;10.15;;;5.28;;
77164;SDS011;66140;50.280;18.660;2022-12-24T11:05:01;11.18;;;4.53;;
77164;SDS011;66140;50.280;18.660;2022-12-24T11:07:30;16.67;;;6.07;;
77164;SDS011;66140;50.280;18.660;2022-12-24T11:10:03;7.55;;;4.55;;
77164;SDS011;66140;50.280;18.660;2022-12-24T11:12:34;9.73;;;4.18;;
77164;SDS011;66140;50.280;18.660;2022-12-24T11:15:21;10.65;;;4.47;;
77164;SDS011;66140;50.280;18.660;2022-12-24T11:18:00;6.32;;;3.90;;
77164;SDS011;66140;50.280;18.660;2022-12-24T11:20:37;4.55;;;2.83;;
77164;SDS011;66140;50.280;18.660;2022-12-24T11:23:03;7.82;;;3.35;;
77164;SDS011;66140;50.280;18.660;2022-12-24T11:25:30;9.15;;;3.75;;
77164;SDS011;66140;50.280;18.660;2022-12-24T11:28:11;7.82;;;3.85;;
77164;SDS011;66140;50.280;18.660;2022-12-24T11:30:54;6.03;;;3.25;;
77164;SDS011;66140;50.280;18.660;2022-12-24T11:33:21;8.68;;;3.75;;
77164;SDS011;66140;50.280;18.660;2022-12-24T11:35:58;7.95;;;3.70;;
77164;SDS011;66140;50.280;18.660;2022-12-24T11:38:26;7.13;;;3.92;;
77164;SDS011;66140;50.280;18.660;2022-12-24T11:40:59;9.80;;;4.07;;
77164;SDS011;66140;50.280;18.660;2022-12-24T11:43:26;8.60;;;3.63;;
77164;SDS011;66140;50.280;18.660;2022-12-24T11:46:15;5.50;;;3.35;;
77164;SDS011;66140;50.280;18.660;2022-12-24T11:48:41;8.05;;;3.45;;
77164;SDS011;66140;50.280;18.660;2022-12-24T11:51:17;8.00;;;3.90;;
77164;SDS011;66140;50.280;18.660;2022-12-24T11:53:49;5.53;;;2.92;;
77164;SDS011;66140;50.280;18.660;2022-12-24T11:56:31;3.97;;;1.80;;
77164;SDS011;66140;50.280;18.660;2022-12-24T12:02:27;5.50;;;2.45;;
77164;SDS011;66140;50.280;18.660;2022-12-24T12:04:59;5.95;;;2.58;;
77164;SDS011;66140;50.280;18.660;2022-12-24T12:07:29;3.38;;;1.98;;
77164;SDS011;66140;50.280;18.660;2022-12-24T12:12:30;6.05;;;2.03;;
77164;SDS011;66140;50.280;18.660;2022-12-24T12:15:21;4.45;;;2.30;;
77164;SDS011;66140;50.280;18.660;2022-12-24T12:18:06;5.13;;;2.55;;
77164;SDS011;66140;50.280;18.660;2022-12-24T12:20:43;5.55;;;3.05;;
77164;SDS011;66140;50.280;18.660;2022-12-24T12:25:43;5.40;;;2.70;;
77164;SDS011;66140;50.280;18.660;2022-12-24T12:28:17;7.10;;;2.95;;
77164;SDS011;66140;50.280;18.660;2022-12-24T12:31:43;4.43;;;2.83;;
77164;SDS011;66140;50.280;18.660;2022-12-24T12:33:48;7.97;;;3.28;;
77164;SDS011;66140;50.280;18.660;2022-12-24T12:36:38;7.13;;;3.63;;
77164;SDS011;66140;50.280;18.660;2022-12-24T12:39:09;7.03;;;3.30;;
77164;SDS011;66140;50.280;18.660;2022-12-24T12:44:26;5.90;;;3.40;;
77164;SDS011;66140;50.280;18.660;2022-12-24T12:50:08;9.07;;;3.30;;
77164;SDS011;66140;50.280;18.660;2022-12-24T12:58:02;7.93;;;3.70;;
77164;SDS011;66140;50.280;18.660;2022-12-24T13:00:33;8.88;;;3.70;;
77164;SDS011;66140;50.280;18.660;2022-12-24T13:15:21;7.88;;;3.00;;
77164;SDS011;66140;50.280;18.660;2022-12-24T13:20:53;9.13;;;2.97;;
77164;SDS011;66140;50.280;18.660;2022-12-24T13:23:19;3.60;;;2.22;;
77164;SDS011;66140;50.280;18.660;2022-12-24T13:25:47;7.13;;;2.80;;
77164;SDS011;66140;50.280;18.660;2022-12-24T13:30:46;9.88;;;2.60;;
77164;SDS011;66140;50.280;18.660;2022-12-24T13:52:12;13.38;;;3.25;;
77164;SDS011;66140;50.280;18.660;2022-12-24T13:54:44;8.00;;;3.50;;
77164;SDS011;66140;50.280;18.660;2022-12-24T13:59:55;8.80;;;3.28;;
77164;SDS011;66140;50.280;18.660;2022-12-24T14:02:24;8.85;;;3.85;;
77164;SDS011;66140;50.280;18.660;2022-12-24T14:04:52;8.05;;;4.40;;
77164;SDS011;66140;50.280;18.660;2022-12-24T14:07:23;10.43;;;3.63;;
77164;SDS011;66140;50.280;18.660;2022-12-24T14:09:49;10.32;;;4.40;;
77164;SDS011;66140;50.280;18.660;2022-12-24T14:12:29;9.02;;;3.30;;
77164;SDS011;66140;50.280;18.660;2022-12-24T14:14:57;9.32;;;3.60;;
77164;SDS011;66140;50.280;18.660;2022-12-24T14:17:24;11.95;;;4.38;;
77164;SDS011;66140;50.280;18.660;2022-12-24T14:19:51;13.10;;;4.78;;
77164;SDS011;66140;50.280;18.660;2022-12-24T14:24:58;7.72;;;3.45;;
77164;SDS011;66140;50.280;18.660;2022-12-24T14:27:37;13.63;;;4.68;;
77164;SDS011;66140;50.280;18.660;2022-12-24T14:30:08;12.13;;;4.28;;
77164;SDS011;66140;50.280;18.660;2022-12-24T14:32:42;7.47;;;3.58;;
77164;SDS011;66140;50.280;18.660;2022-12-24T14:37:33;9.95;;;4.15;;
77164;SDS011;66140;50.280;18.660;2022-12-24T14:39:59;9.32;;;4.53;;
77164;SDS011;66140;50.280;18.660;2022-12-24T14:47:56;10.38;;;4.25;;
77164;SDS011;66140;50.280;18.660;2022-12-24T14:53:16;11.68;;;5.10;;
77164;SDS011;66140;50.280;18.660;2022-12-24T14:55:50;9.25;;;4.38;;
77164;SDS011;66140;50.280;18.660;2022-12-24T14:58:23;9.15;;;4.05;;
77164;SDS011;66140;50.280;18.660;2022-12-24T15:00:57;13.13;;;4.65;;
77164;SDS011;66140;50.280;18.660;2022-12-24T15:03:25;9.90;;;3.72;;
77164;SDS011;66140;50.280;18.660;2022-12-24T15:05:56;7.88;;;3.30;;
77164;SDS011;66140;50.280;18.660;2022-12-24T15:08:28;9.95;;;3.58;;
77164;SDS011;66140;50.280;18.660;2022-12-24T15:10:58;12.77;;;5.20;;
77164;SDS011;66140;50.280;18.660;2022-12-24T15:13:27;9.85;;;3.70;;
77164;SDS011;66140;50.280;18.660;2022-12-24T15:16:09;10.45;;;4.22;;
77164;SDS011;66140;50.280;18.660;2022-12-24T15:18:38;9.77;;;3.75;;
77164;SDS011;66140;50.280;18.660;2022-12-24T15:21:13;13.55;;;4.70;;
77164;SDS011;66140;50.280;18.660;2022-12-24T15:23:47;9.52;;;4.57;;
77164;SDS011;66140;50.280;18.660;2022-12-24T15:26:24;11.15;;;5.20;;
77164;SDS011;66140;50.280;18.660;2022-12-24T15:31:27;11.85;;;4.85;;
77164;SDS011;66140;50.280;18.660;2022-12-24T15:33:54;11.90;;;5.63;;
77164;SDS011;66140;50.280;18.660;2022-12-24T15:36:31;14.57;;;5.88;;
77164;SDS011;66140;50.280;18.660;2022-12-24T15:39:01;8.43;;;5.60;;
77164;SDS011;66140;50.280;18.660;2022-12-24T15:41:34;11.82;;;4.68;;
77164;SDS011;66140;50.280;18.660;2022-12-24T15:44:25;8.90;;;4.60;;
77164;SDS011;66140;50.280;18.660;2022-12-24T15:46:59;13.80;;;5.97;;
77164;SDS011;66140;50.280;18.660;2022-12-24T15:49:26;19.05;;;7.15;;
77164;SDS011;66140;50.280;18.660;2022-12-24T15:52:00;13.90;;;7.55;;
77164;SDS011;66140;50.280;18.660;2022-12-24T15:54:31;19.40;;;8.88;;
77164;SDS011;66140;50.280;18.660;2022-12-24T15:56:56;16.38;;;7.95;;
77164;SDS011;66140;50.280;18.660;2022-12-24T15:59:29;14.53;;;7.97;;
77164;SDS011;66140;50.280;18.660;2022-12-24T16:10:34;10.88;;;6.85;;
77164;SDS011;66140;50.280;18.660;2022-12-24T16:13:08;15.90;;;7.15;;
77164;SDS011;66140;50.280;18.660;2022-12-24T16:15:47;14.57;;;6.70;;
77164;SDS011;66140;50.280;18.660;2022-12-24T16:18:30;13.70;;;6.47;;
77164;SDS011;66140;50.280;18.660;2022-12-24T16:20:58;17.75;;;7.95;;
77164;SDS011;66140;50.280;18.660;2022-12-24T16:23:24;15.27;;;7.05;;
77164;SDS011;66140;50.280;18.660;2022-12-24T16:25:53;11.27;;;5.95;;
77164;SDS011;66140;50.280;18.660;2022-12-24T16:28:19;15.23;;;6.15;;
77164;SDS011;66140;50.280;18.660;2022-12-24T16:30:46;11.25;;;5.60;;
77164;SDS011;66140;50.280;18.660;2022-12-24T16:33:13;7.78;;;4.80;;
77164;SDS011;66140;50.280;18.660;2022-12-24T16:35:39;14.18;;;5.43;;
77164;SDS011;66140;50.280;18.660;2022-12-24T16:38:05;11.50;;;4.30;;
77164;SDS011;66140;50.280;18.660;2022-12-24T16:40:30;13.85;;;5.25;;
77164;SDS011;66140;50.280;18.660;2022-12-24T16:42:56;11.82;;;5.60;;
77164;SDS011;66140;50.280;18.660;2022-12-24T16:45:41;13.90;;;5.72;;
77164;SDS011;66140;50.280;18.660;2022-12-24T16:48:08;9.30;;;5.25;;
77164;SDS011;66140;50.280;18.660;2022-12-24T16:50:40;16.10;;;6.78;;
77164;SDS011;66140;50.280;18.660;2022-12-24T16:53:07;13.35;;;6.45;;
77164;SDS011;66140;50.280;18.660;2022-12-24T16:55:33;18.80;;;8.18;;
77164;SDS011;66140;50.280;18.660;2022-12-24T16:57:59;12.23;;;7.63;;
77164;SDS011;66140;50.280;18.660;2022-12-24T17:00:24;20.03;;;9.57;;
77164;SDS011;66140;50.280;18.660;2022-12-24T17:02:49;19.92;;;9.73;;
77164;SDS011;66140;50.280;18.660;2022-12-24T17:05:15;20.95;;;10.85;;
77164;SDS011;66140;50.280;18.660;2022-12-24T17:07:40;20.33;;;7.93;;
77164;SDS011;66140;50.280;18.660;2022-12-24T17:10:10;15.35;;;6.88;;
77164;SDS011;66140;50.280;18.660;2022-12-24T17:13:45;14.00;;;7.20;;
77164;SDS011;66140;50.280;18.660;2022-12-24T17:16:11;19.37;;;8.93;;
77164;SDS011;66140;50.280;18.660;2022-12-24T17:18:36;15.40;;;6.80;;
77164;SDS011;66140;50.280;18.660;2022-12-24T17:21:02;17.40;;;7.40;;
77164;SDS011;66140;50.280;18.660;2022-12-24T17:23:27;14.82;;;6.57;;
77164;SDS011;66140;50.280;18.660;2022-12-24T17:25:53;13.45;;;6.88;;
77164;SDS011;66140;50.280;18.660;2022-12-24T17:28:18;15.05;;;7.60;;
77164;SDS011;66140;50.280;18.660;2022-12-24T17:30:44;14.15;;;6.07;;
77164;SDS011;66140;50.280;18.660;2022-12-24T17:33:09;14.75;;;7.38;;
77164;SDS011;66140;50.280;18.660;2022-12-24T17:35:39;13.33;;;6.30;;
77164;SDS011;66140;50.280;18.660;2022-12-24T17:38:05;12.38;;;7.75;;
77164;SDS011;66140;50.280;18.660;2022-12-24T17:40:30;13.13;;;7.50;;
77164;SDS011;66140;50.280;18.660;2022-12-24T17:42:56;15.00;;;6.60;;
77164;SDS011;66140;50.280;18.660;2022-12-24T17:45:21;14.68;;;6.80;;
77164;SDS011;66140;50.280;18.660;2022-12-24T17:47:47;15.57;;;7.35;;
77164;SDS011;66140;50.280;18.660;2022-12-24T17:50:12;14.05;;;5.82;;
77164;SDS011;66140;50.280;18.660;2022-12-24T17:52:38;13.60;;;6.18;;
77164;SDS011;66140;50.280;18.660;2022-12-24T17:55:03;11.75;;;5.10;;
77164;SDS011;66140;50.280;18.660;2022-12-24T17:57:29;13.30;;;4.65;;
77164;SDS011;66140;50.280;18.660;2022-12-24T17:59:55;12.25;;;4.53;;
77164;SDS011;66140;50.280;18.660;2022-12-24T18:02:21;9.07;;;4.72;;
77164;SDS011;66140;50.280;18.660;2022-12-24T18:04:47;9.30;;;5.07;;
77164;SDS011;66140;50.280;18.660;2022-12-24T18:07:13;12.90;;;5.28;;
77164;SDS011;66140;50.280;18.660;2022-12-24T18:09:38;12.18;;;4.70;;
77164;SDS011;66140;50.280;18.660;2022-12-24T18:12:05;13.55;;;4.13;;
77164;SDS011;66140;50.280;18.660;2022-12-24T18:14:31;15.05;;;8.48;;
77164;SDS011;66140;50.280;18.660;2022-12-24T18:16:56;10.30;;;5.25;;
77164;SDS011;66140;50.280;18.660;2022-12-24T18:19:22;14.20;;;5.95;;
77164;SDS011;66140;50.280;18.660;2022-12-24T18:21:47;31.10;;;16.97;;
77164;SDS011;66140;50.280;18.660;2022-12-24T18:24:12;25.67;;;11.88;;
77164;SDS011;66140;50.280;18.660;2022-12-24T18:26:38;19.17;;;7.60;;
77164;SDS011;66140;50.280;18.660;2022-12-24T18:29:04;17.05;;;9.30;;
77164;SDS011;66140;50.280;18.660;2022-12-24T18:31:33;14.88;;;8.38;;
77164;SDS011;66140;50.280;18.660;2022-12-24T18:33:58;21.65;;;9.68;;
77164;SDS011;66140;50.280;18.660;2022-12-24T18:36:25;19.98;;;9.32;;
77164;SDS011;66140;50.280;18.660;2022-12-24T18:38:50;21.37;;;10.07;;
77164;SDS011;66140;50.280;18.660;2022-12-24T18:41:17;22.08;;;10.32;;
77164;SDS011;66140;50.280;18.660;2022-12-24T18:43:44;16.50;;;9.82;;
77164;SDS011;66140;50.280;18.660;2022-12-24T18:46:12;16.88;;;9.88;;
77164;SDS011;66140;50.280;18.660;2022-12-24T18:48:40;20.55;;;10.18;;
77164;SDS011;66140;50.280;18.660;2022-12-24T18:51:06;19.58;;;10.32;;
77164;SDS011;66140;50.280;18.660;2022-12-24T18:53:33;20.30;;;8.88;;
77164;SDS011;66140;50.280;18.660;2022-12-24T18:56:18;18.90;;;8.10;;
77164;SDS011;66140;50.280;18.660;2022-12-24T18:58:45;23.35;;;9.57;;
77164;SDS011;66140;50.280;18.660;2022-12-24T19:01:13;22.67;;;10.18;;
77164;SDS011;66140;50.280;18.660;2022-12-24T19:03:38;14.07;;;7.20;;
77164;SDS011;66140;50.280;18.660;2022-12-24T19:06:04;19.45;;;8.30;;
77164;SDS011;66140;50.280;18.660;2022-12-24T19:08:29;17.42;;;8.02;;
77164;SDS011;66140;50.280;18.660;2022-12-24T19:10:55;16.03;;;8.37;;
77164;SDS011;66140;50.280;18.660;2022-12-24T19:13:20;21.60;;;8.50;;
77164;SDS011;66140;50.280;18.660;2022-12-24T19:15:46;28.77;;;14.57;;
77164;SDS011;66140;50.280;18.660;2022-12-24T19:18:11;17.67;;;9.83;;
77164;SDS011;66140;50.280;18.660;2022-12-24T19:20:37;24.20;;;10.33;;
77164;SDS011;66140;50.280;18.660;2022-12-24T19:23:03;16.42;;;8.63;;
77164;SDS011;66140;50.280;18.660;2022-12-24T19:25:29;18.13;;;9.07;;
77164;SDS011;66140;50.280;18.660;2022-12-24T19:27:54;21.80;;;8.00;;
77164;SDS011;66140;50.280;18.660;2022-12-24T19:30:20;17.23;;;8.00;;
77164;SDS011;66140;50.280;18.660;2022-12-24T19:32:45;26.15;;;9.88;;
77164;SDS011;66140;50.280;18.660;2022-12-24T19:35:10;18.75;;;8.55;;
77164;SDS011;66140;50.280;18.660;2022-12-24T19:37:36;24.08;;;8.93;;
77164;SDS011;66140;50.280;18.660;2022-12-24T19:40:01;18.58;;;9.05;;
77164;SDS011;66140;50.280;18.660;2022-12-24T19:42:27;22.92;;;8.80;;
77164;SDS011;66140;50.280;18.660;2022-12-24T19:44:53;22.00;;;9.05;;
77164;SDS011;66140;50.280;18.660;2022-12-24T19:47:19;19.98;;;8.80;;
77164;SDS011;66140;50.280;18.660;2022-12-24T19:49:44;17.40;;;7.80;;
77164;SDS011;66140;50.280;18.660;2022-12-24T19:52:10;14.13;;;7.85;;
77164;SDS011;66140;50.280;18.660;2022-12-24T19:54:35;15.57;;;7.77;;
77164;SDS011;66140;50.280;18.660;2022-12-24T19:57:00;16.92;;;8.77;;
77164;SDS011;66140;50.280;18.660;2022-12-24T19:59:26;15.53;;;8.93;;
77164;SDS011;66140;50.280;18.660;2022-12-24T20:01:51;13.77;;;7.85;;
77164;SDS011;66140;50.280;18.660;2022-12-24T20:04:18;13.40;;;7.32;;
77164;SDS011;66140;50.280;18.660;2022-12-24T20:06:45;19.77;;;8.10;;
77164;SDS011;66140;50.280;18.660;2022-12-24T20:09:11;19.48;;;9.25;;
77164;SDS011;66140;50.280;18.660;2022-12-24T20:11:36;20.55;;;7.93;;
77164;SDS011;66140;50.280;18.660;2022-12-24T20:14:03;20.30;;;8.52;;
77164;SDS011;66140;50.280;18.660;2022-12-24T20:16:29;18.75;;;9.15;;
77164;SDS011;66140;50.280;18.660;2022-12-24T20:18:56;21.23;;;8.65;;
77164;SDS011;66140;50.280;18.660;2022-12-24T20:21:23;17.58;;;9.75;;
77164;SDS011;66140;50.280;18.660;2022-12-24T20:23:49;20.70;;;9.55;;
77164;SDS011;66140;50.280;18.660;2022-12-24T20:26:16;31.40;;;15.25;;
77164;SDS011;66140;50.280;18.660;2022-12-24T20:28:43;34.28;;;16.63;;
